Time;durP1;ratioP1;P1;durP2;ratioP2;P2;SDS_P1;SDS_P2;PMS_P1;PMS_P2;Temp;Humidity;BMP_temperature;BMP_pressure;BME280_temperature;BME280_humidity;BME280_pressure;Samples;Min_cycle;Max_cycle;Signal;HPM_P1;HPM_P2
2022/03/26 00:01:41;;;;;;;;;;;;;;;5.55;45.59;96043.38;5073913;28;1035;-48
2022/03/26 00:04:07;;;;;;;;;;;;;;;5.18;46.41;96051.22;5073554;28;956;-49
2022/03/26 00:06:33;;;;;;;;;;;;;;;4.97;46.82;96048.25;5072548;28;1053;-49
2022/03/26 00:09:00;;;;;;;;;;;;;;;5.18;46.37;96056.53;5073749;28;996;-48
2022/03/26 00:11:26;;;;;;;;;;;;;;;5.11;46.27;96056.13;5073702;28;1127;-48
2022/03/26 00:13:52;;;;;;;;;;;;;;;5.02;46.58;96054.09;5073249;28;1910;-49
2022/03/26 00:16:18;;;;;;;;;;;;;;;5.01;46.67;96049.78;5073758;28;957;-49
2022/03/26 00:18:44;;;;;;;;;;;;;;;5.16;46.69;96054.00;5055724;28;1425;-49
2022/03/26 00:21:11;;;;;;;;;;;;;;;5.29;46.36;96048.69;5072307;28;1036;-49
2022/03/26 00:23:37;;;;;;;;;;;;;;;5.08;47.22;96054.56;5073889;28;1326;-49
2022/03/26 00:26:03;;;;;;;;;;;;;;;4.97;46.88;96048.25;5073571;28;961;-49
2022/03/26 00:28:30;;;;;;;;;;;;;;;4.77;47.49;96060.22;5072327;28;965;-48
2022/03/26 00:30:57;;;;;;;;;;;;;;;4.83;47.58;96051.84;5073456;28;1016;-49
2022/03/26 00:33:25;;;;;;;;;;;;;;;4.92;47.71;96063.66;5073072;28;1992;-49
2022/03/26 00:35:51;;;;;;;;;;;;;;;4.86;47.82;96054.31;5073283;28;983;-48
2022/03/26 00:38:17;;;;;;;;;;;;;;;5.02;47.28;96064.72;5072285;28;1051;-49
2022/03/26 00:40:44;;;;;;;;;;;;;;;5.32;47.38;96058.25;5072182;28;1032;-49
2022/03/26 00:43:10;;;;;;;;;;;;;;;5.25;47.58;96056.03;5071889;28;1011;-49
2022/03/26 00:45:37;;;;;;;;;;;;;;;4.94;47.98;96059.09;5072142;28;1104;-49
2022/03/26 00:48:03;;;;;;;;;;;;;;;4.99;47.86;96054.31;5071858;28;1040;-48
2022/03/26 00:50:29;;;;;;;;;;;;;;;5.05;47.47;96057.41;5073137;28;1188;-49
2022/03/26 00:52:55;;;;;;;;;;;;;;;5.11;47.60;96057.94;5073019;28;2003;-49
2022/03/26 00:55:21;;;;;;;;;;;;;;;5.09;47.75;96061.53;5073207;28;1081;-49
2022/03/26 00:57:48;;;;;;;;;;;;;;;5.05;47.86;96056.56;5075383;28;1021;-49
2022/03/26 01:00:14;;;;;;;;;;;;;;;5.05;47.52;96051.25;5078682;28;1016;-49
2022/03/26 01:02:40;;;;;;;;;;;;;;;5.07;48.10;96057.28;5079911;28;1071;-49
2022/03/26 01:05:07;;;;;;;;;;;;;;;5.03;47.95;96055.81;5078246;28;1024;-48
2022/03/26 01:07:33;;;;;;;;;;;;;;;4.97;47.96;96057.09;5078792;28;996;-48
2022/03/26 01:09:59;;;;;;;;;;;;;;;4.95;47.84;96060.78;5078418;28;976;-48
2022/03/26 01:12:26;;;;;;;;;;;;;;;4.99;48.13;96063.13;5079620;28;1128;-49
2022/03/26 01:14:52;;;;;;;;;;;;;;;5.01;48.14;96061.22;5079438;28;1905;-49
2022/03/26 01:17:19;;;;;;;;;;;;;;;4.76;48.62;96064.69;5079660;28;1052;-48
2022/03/26 01:19:46;;;;;;;;;;;;;;;4.80;48.56;96060.88;5079216;28;968;-48
2022/03/26 01:22:12;;;;;;;;;;;;;;;4.69;48.81;96060.75;5079865;28;1020;-49
2022/03/26 01:24:38;;;;;;;;;;;;;;;4.79;48.49;96060.97;5078200;28;1048;-49
2022/03/26 01:27:06;;;;;;;;;;;;;;;4.84;48.55;96062.34;5079641;28;933;-49
2022/03/26 01:29:33;;;;;;;;;;;;;;;4.98;48.16;96065.88;5079312;28;999;-49
2022/03/26 01:31:59;;;;;;;;;;;;;;;4.92;48.29;96068.94;5079392;28;969;-49
2022/03/26 01:34:27;;;;;;;;;;;;;;;4.60;49.01;96069.31;5077888;28;1902;-49
2022/03/26 01:36:53;;;;;;;;;;;;;;;4.44;49.54;96072.97;5079376;28;1200;-49
2022/03/26 01:39:20;;;;;;;;;;;;;;;4.58;49.54;96072.03;5078197;28;988;-49
2022/03/26 01:41:47;;;;;;;;;;;;;;;4.52;50.01;96075.09;5078121;28;1020;-48
2022/03/26 01:44:13;;;;;;;;;;;;;;;4.49;49.66;96076.13;5079299;28;969;-48
2022/03/26 01:46:49;;;;;;;;;;;;;;;4.29;50.01;96073.97;5079417;28;988;-49
2022/03/26 01:49:16;;;;;;;;;;;;;;;4.14;50.46;96080.28;5079141;28;1083;-48
2022/03/26 01:51:42;;;;;;;;;;;;;;;3.99;50.81;96075.00;5079457;28;1173;-49
2022/03/26 01:54:08;;;;;;;;;;;;;;;3.96;51.11;96079.63;5079193;28;1977;-48
2022/03/26 01:56:35;;;;;;;;;;;;;;;4.11;50.88;96079.50;5078003;28;1097;-49
2022/03/26 01:59:01;;;;;;;;;;;;;;;3.85;51.53;96086.47;5079128;28;979;-48
2022/03/26 02:01:27;;;;;;;;;;;;;;;4.09;50.65;96083.19;5079222;28;962;-49
2022/03/26 02:03:53;;;;;;;;;;;;;;;4.36;50.61;96088.50;5078857;28;1072;-48
2022/03/26 02:06:22;;;;;;;;;;;;;;;4.26;50.34;96090.06;5079189;28;1095;-49
2022/03/26 02:08:48;;;;;;;;;;;;;;;3.86;50.69;96095.25;5078025;28;964;-49
2022/03/26 02:11:15;;;;;;;;;;;;;;;3.64;51.49;96091.31;5075484;28;1099;-49
2022/03/26 02:13:47;;;;;;;;;;;;;;;3.71;51.76;96097.91;5075757;28;1906;-48
2022/03/26 02:16:14;;;;;;;;;;;;;;;3.74;51.19;96096.00;5075859;28;1004;-48
2022/03/26 02:18:40;;;;;;;;;;;;;;;3.66;51.44;96100.00;5076023;28;969;-49
2022/03/26 02:21:06;;;;;;;;;;;;;;;3.59;51.86;96103.97;5075650;28;1114;-49
2022/03/26 02:23:32;;;;;;;;;;;;;;;3.49;52.06;96105.47;5075969;28;1028;-49
2022/03/26 02:25:58;;;;;;;;;;;;;;;3.71;52.07;96100.53;5075620;28;968;-49
2022/03/26 02:28:24;;;;;;;;;;;;;;;3.40;52.39;96108.69;5074503;28;1039;-48
2022/03/26 02:30:50;;;;;;;;;;;;;;;3.06;53.22;96110.72;5075364;28;1003;-49
2022/03/26 02:33:16;;;;;;;;;;;;;;;3.01;53.33;96118.91;5075431;28;1990;-49
2022/03/26 02:35:42;;;;;;;;;;;;;;;3.26;52.94;96110.38;5075352;28;1016;-48
2022/03/26 02:38:09;;;;;;;;;;;;;;;3.23;53.43;96117.66;5074443;28;972;-48
2022/03/26 02:40:35;;;;;;;;;;;;;;;2.87;53.63;96125.03;5075450;28;1011;-49
2022/03/26 02:43:02;;;;;;;;;;;;;;;2.82;54.40;96119.16;5075616;28;1012;-49
2022/03/26 02:45:29;;;;;;;;;;;;;;;2.85;54.34;96118.97;5075173;28;1087;-48
2022/03/26 02:47:56;;;;;;;;;;;;;;;2.96;54.00;96121.00;5075177;28;933;-49
2022/03/26 02:50:22;;;;;;;;;;;;;;;2.97;53.89;96121.84;5075316;28;999;-49
2022/03/26 02:52:50;;;;;;;;;;;;;;;2.95;54.02;96121.09;5075245;28;1185;-49
2022/03/26 02:55:16;;;;;;;;;;;;;;;2.85;53.79;96124.28;5074834;28;1995;-49
2022/03/26 02:57:43;;;;;;;;;;;;;;;2.64;54.74;96126.38;5075178;28;1863;-49
2022/03/26 03:00:09;;;;;;;;;;;;;;;2.61;54.58;96125.69;5074803;28;972;-49
2022/03/26 03:02:35;;;;;;;;;;;;;;;2.56;55.36;96133.03;5075184;28;1007;-48
2022/03/26 03:05:01;;;;;;;;;;;;;;;2.84;54.97;96125.19;5074948;28;961;-48
2022/03/26 03:07:27;;;;;;;;;;;;;;;3.07;54.28;96133.56;5074959;28;1053;-49
2022/03/26 03:09:53;;;;;;;;;;;;;;;2.98;53.92;96123.53;5074652;28;1032;-48
2022/03/26 03:12:20;;;;;;;;;;;;;;;2.71;54.57;96124.22;5074663;28;1039;-48
2022/03/26 03:14:46;;;;;;;;;;;;;;;2.51;54.47;96126.22;5074544;28;1993;-48
2022/03/26 03:17:12;;;;;;;;;;;;;;;2.20;55.59;96121.84;5073432;28;1032;-49
2022/03/26 03:19:38;;;;;;;;;;;;;;;2.28;55.70;96129.34;5074850;28;1008;-48
2022/03/26 03:22:04;;;;;;;;;;;;;;;2.40;55.57;96127.78;5073226;28;961;-49
2022/03/26 03:24:30;;;;;;;;;;;;;;;2.15;55.73;96137.91;5074724;28;1019;-49
2022/03/26 03:26:57;;;;;;;;;;;;;;;2.21;56.20;96127.97;5074335;28;1008;-49
2022/03/26 03:29:23;;;;;;;;;;;;;;;2.35;55.35;96130.66;5074738;28;1061;-49
2022/03/26 03:31:49;;;;;;;;;;;;;;;2.36;55.85;96135.03;5074330;28;961;-49
2022/03/26 03:34:15;;;;;;;;;;;;;;;2.22;55.46;96125.25;5074536;28;1914;-49
2022/03/26 03:36:41;;;;;;;;;;;;;;;2.20;55.61;96128.88;5074351;28;1050;-49
2022/03/26 03:39:07;;;;;;;;;;;;;;;2.43;55.28;96139.03;5074252;28;1072;-48
2022/03/26 03:41:34;;;;;;;;;;;;;;;2.40;55.14;96136.53;5074155;28;1086;-48
2022/03/26 03:44:02;;;;;;;;;;;;;;;2.09;55.92;96140.06;5073845;28;1019;-49
2022/03/26 03:46:33;;;;;;;;;;;;;;;2.11;56.39;96139.03;5073882;28;1025;-49
2022/03/26 03:48:59;;;;;;;;;;;;;;;2.27;55.87;96138.16;5074154;28;1054;-48
2022/03/26 03:51:26;;;;;;;;;;;;;;;2.31;55.60;96143.19;5073943;28;1165;-48
2022/03/26 03:53:52;;;;;;;;;;;;;;;2.31;55.74;96143.19;5073795;28;1910;-49
2022/03/26 03:56:18;;;;;;;;;;;;;;;2.15;55.95;96148.47;5073608;28;1838;-49
2022/03/26 03:58:44;;;;;;;;;;;;;;;2.06;56.20;96156.06;5074130;28;1056;-49
2022/03/26 04:01:10;;;;;;;;;;;;;;;2.02;56.18;96154.53;5073817;28;972;-49
2022/03/26 04:03:36;;;;;;;;;;;;;;;1.95;56.79;96159.28;5072602;28;1088;-49
2022/03/26 04:06:03;;;;;;;;;;;;;;;1.84;56.61;96165.16;5073661;28;992;-49
2022/03/26 04:08:29;;;;;;;;;;;;;;;1.90;56.51;96166.59;5073840;28;969;-49
2022/03/26 04:10:55;;;;;;;;;;;;;;;1.86;57.45;96160.66;5073521;28;957;-49
2022/03/26 04:13:21;;;;;;;;;;;;;;;1.72;56.85;96171.91;5073637;28;1989;-49
2022/03/26 04:15:47;;;;;;;;;;;;;;;1.60;57.92;96171.75;5073524;28;1100;-49
2022/03/26 04:18:13;;;;;;;;;;;;;;;1.78;57.17;96178.63;5073617;28;1029;-49
2022/03/26 04:20:40;;;;;;;;;;;;;;;1.76;57.85;96175.25;5073653;28;1029;-49
2022/03/26 04:23:07;;;;;;;;;;;;;;;1.81;57.76;96175.84;5073346;28;1546;-49
2022/03/26 04:25:35;;;;;;;;;;;;;;;1.97;57.35;96178.50;5072296;28;1801;-48
2022/03/26 04:28:02;;;;;;;;;;;;;;;1.80;57.62;96183.84;5073549;28;1826;-49
2022/03/26 04:30:29;;;;;;;;;;;;;;;1.82;57.28;96188.13;5072595;28;1016;-49
2022/03/26 04:32:57;;;;;;;;;;;;;;;1.59;57.63;96189.31;5071563;28;1052;-49
2022/03/26 04:35:24;;;;;;;;;;;;;;;1.65;57.84;96189.03;5072090;28;2508;-48
2022/03/26 04:37:55;;;;;;;;;;;;;;;1.59;58.06;96189.31;5073195;28;1020;-48
2022/03/26 04:40:25;;;;;;;;;;;;;;;1.60;58.09;96191.03;5073407;28;1036;-48
2022/03/26 04:42:51;;;;;;;;;;;;;;;1.51;58.11;96196.78;5073125;28;969;-48
2022/03/26 04:45:17;;;;;;;;;;;;;;;1.59;58.06;96199.88;5073260;28;1984;-48
2022/03/26 04:47:43;;;;;;;;;;;;;;;1.56;58.26;96198.25;5072116;28;1523;-48
2022/03/26 04:50:10;;;;;;;;;;;;;;;1.50;58.50;96195.94;5073296;28;1083;-49
2022/03/26 04:52:36;;;;;;;;;;;;;;;1.49;58.76;96194.22;5072875;28;1217;-49
2022/03/26 04:55:03;;;;;;;;;;;;;;;1.89;58.20;96201.81;5072960;28;1906;-48
2022/03/26 04:57:29;;;;;;;;;;;;;;;2.14;57.74;96196.94;5072882;28;1116;-48
2022/03/26 04:59:55;;;;;;;;;;;;;;;2.33;57.23;96202.03;5073237;28;1055;-49
2022/03/26 05:02:21;;;;;;;;;;;;;;;2.52;56.76;96201.00;5073036;28;1115;-49
2022/03/26 05:04:48;;;;;;;;;;;;;;;2.71;56.13;96203.44;5071936;28;1028;-49
2022/03/26 05:09:58;;;;;;;;;;;;;;;3.06;55.53;96209.34;5073088;28;1044;-49
2022/03/26 05:12:24;;;;;;;;;;;;;;;3.13;55.25;96208.06;5072658;28;1975;-48
2022/03/26 05:14:50;;;;;;;;;;;;;;;3.14;55.12;96211.53;5071832;28;1991;-48
2022/03/26 05:17:16;;;;;;;;;;;;;;;3.32;55.26;96205.19;5072869;28;1031;-48
2022/03/26 05:19:42;;;;;;;;;;;;;;;3.63;54.85;96210.44;5073089;28;1027;-48
2022/03/26 05:22:08;;;;;;;;;;;;;;;3.78;54.43;96216.59;5072598;28;1044;-48
2022/03/26 05:24:35;;;;;;;;;;;;;;;3.63;54.92;96211.28;5073138;28;1020;-48
2022/03/26 05:27:01;;;;;;;;;;;;;;;3.91;54.59;96213.09;5072785;28;1040;-48
2022/03/26 05:29:29;;;;;;;;;;;;;;;4.32;53.76;96215.91;5072881;28;1083;-49
2022/03/26 05:31:55;;;;;;;;;;;;;;;4.71;53.43;96219.59;5072495;28;1036;-48
2022/03/26 05:34:21;;;;;;;;;;;;;;;5.03;52.26;96215.69;5072736;28;1906;-48
2022/03/26 05:36:47;;;;;;;;;;;;;;;5.33;52.28;96219.06;5072571;28;1039;-56
2022/03/26 05:39:14;;;;;;;;;;;;;;;5.64;52.49;96231.13;5072700;28;1083;-49
2022/03/26 05:41:41;;;;;;;;;;;;;;;5.66;52.63;96226.56;5071550;28;1012;-48
2022/03/26 05:44:08;;;;;;;;;;;;;;;5.80;52.37;96231.75;5072304;28;1027;-49
2022/03/26 05:46:34;;;;;;;;;;;;;;;6.09;51.79;96234.25;5076453;28;1103;-49
2022/03/26 05:49:00;;;;;;;;;;;;;;;6.37;50.75;96234.94;5076242;28;989;-49
2022/03/26 05:51:26;;;;;;;;;;;;;;;6.64;49.91;96225.00;5076197;28;1338;-48
2022/03/26 05:53:52;;;;;;;;;;;;;;;6.81;48.71;96222.91;5076009;28;1906;-48
2022/03/26 05:56:18;;;;;;;;;;;;;;;7.16;47.51;96225.66;5075064;28;1192;-49
2022/03/26 05:58:44;;;;;;;;;;;;;;;7.43;47.47;96235.19;5060207;28;1187;-49
2022/03/26 06:01:11;;;;;;;;;;;;;;;7.73;46.40;96234.69;5056116;28;1076;-49
2022/03/26 06:03:37;;;;;;;;;;;;;;;8.04;46.41;96244.81;5056158;28;984;-48
2022/03/26 06:06:03;;;;;;;;;;;;;;;8.35;45.75;96244.09;5056017;28;1112;-48
2022/03/26 06:08:29;;;;;;;;;;;;;;;8.53;44.49;96248.97;5056210;28;991;-48
2022/03/26 06:10:55;;;;;;;;;;;;;;;8.77;44.31;96243.53;5055761;28;1223;-49
2022/03/26 06:13:21;;;;;;;;;;;;;;;9.24;43.18;96245.94;5055653;28;1902;-49
2022/03/26 06:15:47;;;;;;;;;;;;;;;9.77;42.32;96240.66;5055795;28;1087;-48
2022/03/26 06:18:13;;;;;;;;;;;;;;;10.08;41.63;96248.72;5055758;28;1099;-49
2022/03/26 06:20:42;;;;;;;;;;;;;;;10.47;40.49;96248.97;5055856;28;1207;-49
2022/03/26 06:23:08;;;;;;;;;;;;;;;11.11;39.08;96240.59;5055698;28;961;-49
2022/03/26 06:25:34;;;;;;;;;;;;;;;12.30;37.46;96252.03;5054986;28;958;-49
2022/03/26 06:28:01;;;;;;;;;;;;;;;13.75;35.22;96242.53;5054968;28;1036;-49
2022/03/26 06:30:29;;;;;;;;;;;;;;;15.35;32.19;96243.03;5053839;28;1095;-49
2022/03/26 06:32:55;;;;;;;;;;;;;;;15.95;31.01;96246.50;5055505;28;1052;-49
2022/03/26 06:35:22;;;;;;;;;;;;;;;15.25;31.24;96250.38;5055477;28;1985;-49
2022/03/26 06:37:49;;;;;;;;;;;;;;;15.41;32.14;96245.06;5054596;28;1792;-49
2022/03/26 06:40:15;;;;;;;;;;;;;;;15.61;31.47;96253.72;5037981;28;1445;-48
2022/03/26 06:42:42;;;;;;;;;;;;;;;15.99;30.91;96251.44;5054129;28;1000;-49
2022/03/26 06:45:09;;;;;;;;;;;;;;;16.72;30.37;96254.22;5055198;28;1072;-49
2022/03/26 06:47:36;;;;;;;;;;;;;;;18.64;27.39;96266.31;5064005;28;1057;-49
2022/03/26 06:50:02;;;;;;;;;;;;;;;19.57;26.38;96264.91;5075059;28;1076;-49
2022/03/26 06:52:28;;;;;;;;;;;;;;;19.81;26.11;96257.50;5075491;28;1162;-49
2022/03/26 06:54:55;;;;;;;;;;;;;;;20.73;24.71;96253.97;5074908;28;1906;-49
2022/03/26 06:57:21;;;;;;;;;;;;;;;22.46;22.59;96270.25;5074893;28;1353;-49
2022/03/26 06:59:48;;;;;;;;;;;;;;;23.88;20.90;96273.34;5056454;28;1027;-49
2022/03/26 07:02:13;;;;;;;;;;;;;;;25.42;19.40;96273.03;5055052;28;1075;-49
2022/03/26 07:04:39;;;;;;;;;;;;;;;26.31;18.50;96278.03;5054896;28;1021;-49
2022/03/26 07:07:06;;;;;;;;;;;;;;;26.43;18.51;96280.84;5055318;28;957;-49
2022/03/26 07:09:32;;;;;;;;;;;;;;;27.17;16.87;96283.25;5054595;28;1044;-49
2022/03/26 07:11:58;;;;;;;;;;;;;;;27.20;17.67;96280.00;5053551;28;1072;-49
2022/03/26 07:14:24;;;;;;;;;;;;;;;27.57;17.13;96285.28;5054852;28;1906;-50
2022/03/26 07:16:50;;;;;;;;;;;;;;;27.89;16.42;96290.34;5055058;28;1059;-49
2022/03/26 07:19:16;;;;;;;;;;;;;;;28.22;16.42;96284.97;5054575;28;1001;-48
2022/03/26 07:21:42;;;;;;;;;;;;;;;28.35;16.20;96288.53;5054706;28;1250;-48
2022/03/26 07:24:08;;;;;;;;;;;;;;;28.94;15.91;96288.22;5053307;28;1020;-48
2022/03/26 07:26:34;;;;;;;;;;;;;;;29.01;15.66;96292.47;5054786;28;1059;-48
2022/03/26 07:29:00;;;;;;;;;;;;;;;28.69;15.96;96291.38;5054071;28;1198;-48
2022/03/26 07:31:26;;;;;;;;;;;;;;;29.23;15.47;96291.72;5054906;28;999;-48
2022/03/26 07:33:52;;;;;;;;;;;;;;;29.66;15.11;96290.16;5054537;28;1989;-49
2022/03/26 07:36:18;;;;;;;;;;;;;;;30.01;15.20;96300.00;5054630;28;953;-49
2022/03/26 07:38:45;;;;;;;;;;;;;;;30.30;14.73;96289.59;5054370;28;1071;-49
2022/03/26 07:41:11;;;;;;;;;;;;;;;30.77;14.77;96303.88;5054515;28;1029;-49
2022/03/26 07:43:37;;;;;;;;;;;;;;;30.45;15.48;96300.00;5054150;28;1027;-49
2022/03/26 07:46:03;;;;;;;;;;;;;;;31.09;14.09;96293.72;5054308;28;1117;-48
2022/03/26 07:48:29;;;;;;;;;;;;;;;31.87;13.92;96295.06;5053810;28;1031;-48
2022/03/26 07:50:55;;;;;;;;;;;;;;;32.62;13.54;96294.84;5057317;28;1186;-49
2022/03/26 07:53:22;;;;;;;;;;;;;;;33.34;12.82;96292.94;5074002;28;1910;-48
2022/03/26 07:55:48;;;;;;;;;;;;;;;32.63;12.89;96297.34;5073880;28;1081;-48
2022/03/26 07:58:14;;;;;;;;;;;;;;;32.38;13.08;96298.06;5070060;28;1071;-48
2022/03/26 08:00:40;;;;;;;;;;;;;;;32.21;13.54;96301.03;5053962;28;969;-48
2022/03/26 08:03:06;;;;;;;;;;;;;;;31.51;14.03;96305.91;5053775;28;1056;-48
2022/03/26 08:05:32;;;;;;;;;;;;;;;30.58;14.88;96297.91;5053760;28;1067;-48
2022/03/26 08:07:58;;;;;;;;;;;;;;;28.43;15.53;96293.63;5051755;28;1017;-48
2022/03/26 08:10:24;;;;;;;;;;;;;;;25.60;18.05;96285.06;5053853;28;1088;-48
2022/03/26 08:12:50;;;;;;;;;;;;;;;24.48;19.93;96285.81;5053411;28;1020;-47
2022/03/26 08:15:16;;;;;;;;;;;;;;;23.48;21.11;96286.28;5052499;28;1918;-47
2022/03/26 08:17:42;;;;;;;;;;;;;;;22.63;21.45;96287.00;5053549;28;1024;-48
2022/03/26 08:20:09;;;;;;;;;;;;;;;22.20;22.84;96282.75;5053428;28;1083;-47
2022/03/26 08:22:35;;;;;;;;;;;;;;;22.19;22.30;96288.38;5053892;28;945;-47
2022/03/26 08:25:01;;;;;;;;;;;;;;;22.22;22.81;96277.09;5053394;28;980;-47
2022/03/26 08:27:27;;;;;;;;;;;;;;;22.12;22.35;96273.91;5052619;28;1087;-47
2022/03/26 08:29:53;;;;;;;;;;;;;;;22.64;22.18;96276.94;5052977;28;1640;-47
2022/03/26 08:32:19;;;;;;;;;;;;;;;22.30;21.97;96270.63;5053682;28;1048;-47
2022/03/26 08:34:45;;;;;;;;;;;;;;;22.32;21.35;96261.19;5053122;28;1996;-47
2022/03/26 08:37:11;;;;;;;;;;;;;;;22.19;22.42;96261.97;5053243;28;1021;-47
2022/03/26 08:39:38;;;;;;;;;;;;;;;21.98;22.32;96259.44;5053214;28;1046;-47
2022/03/26 08:42:04;;;;;;;;;;;;;;;22.41;23.09;96254.50;5067151;28;1334;-47
2022/03/26 08:44:30;;;;;;;;;;;;;;;22.77;22.75;96257.88;5073554;28;992;-49
2022/03/26 08:46:56;;;;;;;;;;;;;;;22.73;22.55;96254.72;5073456;28;1047;-47
2022/03/26 08:49:45;;;;;;;;;;;;;;;22.99;22.34;96244.81;5131574;27;1283;-50
2022/03/26 08:52:11;;;;;;;;;;;;;;;22.88;22.22;96242.72;5131559;27;1330;-52
2022/03/26 08:54:37;;;;;;;;;;;;;;;22.98;21.55;96234.97;5131709;28;1100;-48
2022/03/26 08:57:04;;;;;;;;;;;;;;;22.66;21.29;96244.88;5131671;28;1039;-49
2022/03/26 08:59:30;;;;;;;;;;;;;;;22.33;22.76;96235.66;5131150;27;1222;-50
2022/03/26 09:01:56;;;;;;;;;;;;;;;22.17;21.89;96233.28;5131449;28;960;-49
2022/03/26 09:04:22;;;;;;;;;;;;;;;21.92;21.43;96231.13;5131642;27;1047;-49
2022/03/26 09:06:48;;;;;;;;;;;;;;;21.55;23.04;96230.63;5131162;27;1060;-49
2022/03/26 09:09:15;;;;;;;;;;;;;;;21.28;23.45;96226.91;5131060;27;1902;-49
2022/03/26 09:11:43;;;;;;;;;;;;;;;20.95;23.74;96226.75;5131231;28;1217;-49
2022/03/26 09:14:10;;;;;;;;;;;;;;;20.83;22.36;96223.72;5131109;27;1063;-49
2022/03/26 09:16:36;;;;;;;;;;;;;;;20.24;24.22;96220.34;5131038;27;1044;-49
2022/03/26 09:19:02;;;;;;;;;;;;;;;20.46;24.36;96223.03;5131088;28;1222;-49
2022/03/26 09:21:28;;;;;;;;;;;;;;;20.53;23.37;96213.06;5131213;27;1015;-48
2022/03/26 09:23:54;;;;;;;;;;;;;;;20.76;23.62;96215.53;5131035;27;1059;-48
2022/03/26 09:26:20;;;;;;;;;;;;;;;20.81;23.37;96202.19;5130881;27;1091;-48
2022/03/26 09:28:47;;;;;;;;;;;;;;;20.58;23.28;96209.72;5130502;28;1996;-48
2022/03/26 09:31:13;;;;;;;;;;;;;;;20.52;23.23;96199.66;5131119;27;956;-48
2022/03/26 09:33:39;;;;;;;;;;;;;;;20.67;24.75;96211.28;5130939;27;1095;-48
2022/03/26 09:36:05;;;;;;;;;;;;;;;20.96;23.73;96218.41;5130966;27;1066;-48
2022/03/26 09:38:31;;;;;;;;;;;;;;;21.06;23.70;96213.41;5130885;27;1301;-48
2022/03/26 09:40:58;;;;;;;;;;;;;;;21.01;23.71;96209.63;5130643;28;1016;-48
2022/03/26 09:43:24;;;;;;;;;;;;;;;20.39;24.11;96205.81;5130382;27;1032;-48
2022/03/26 09:45:50;;;;;;;;;;;;;;;20.40;24.38;96204.81;5130804;27;1038;-48
2022/03/26 09:48:16;;;;;;;;;;;;;;;20.15;23.43;96198.97;5130226;27;2002;-48
2022/03/26 09:50:43;;;;;;;;;;;;;;;19.97;24.53;96192.09;5130914;27;1345;-48
2022/03/26 09:53:12;;;;;;;;;;;;;;;20.19;25.49;96192.94;5130664;27;1244;-48
2022/03/26 09:58:59;;;;;;;;;;;;;;;20.60;23.95;96192.25;5125726;28;1119;-48
2022/03/26 10:01:26;;;;;;;;;;;;;;;20.71;23.08;96185.41;5115795;28;1949;-48
2022/03/26 10:04:10;;;;;;;;;;;;;;;20.79;23.47;96179.81;5116729;28;1027;-48
2022/03/26 10:06:37;;;;;;;;;;;;;;;20.52;22.91;96170.59;5116455;28;996;-48
2022/03/26 10:09:03;;;;;;;;;;;;;;;20.33;23.57;96165.88;5116477;28;1909;-48
2022/03/26 10:11:33;;;;;;;;;;;;;;;20.23;23.96;96172.50;5116333;28;1027;-48
2022/03/26 10:13:59;;;;;;;;;;;;;;;20.59;23.53;96162.53;5116117;28;1106;-48
2022/03/26 10:16:26;;;;;;;;;;;;;;;20.56;24.04;96168.34;5115760;28;1020;-48
2022/03/26 10:18:52;;;;;;;;;;;;;;;20.59;24.64;96154.38;5116327;28;1043;-48
2022/03/26 10:21:20;;;;;;;;;;;;;;;20.41;24.68;96157.56;5115649;28;1504;-48
2022/03/26 10:23:47;;;;;;;;;;;;;;;20.35;24.05;96153.78;5116394;28;987;-48
2022/03/26 10:26:21;;;;;;;;;;;;;;;20.39;24.81;96146.06;5116436;28;1039;-48
2022/03/26 10:28:54;;;;;;;;;;;;;;;20.20;23.96;96139.47;5116025;28;2000;-47
2022/03/26 10:34:10;;;;;;;;;;;;;;;19.72;24.34;96137.38;5116296;28;1064;-48
2022/03/26 10:36:37;;;;;;;;;;;;;;;19.85;25.15;96139.38;5115794;28;1012;-48
2022/03/26 10:39:03;;;;;;;;;;;;;;;19.66;24.35;96133.53;5116060;28;960;-47
2022/03/26 10:41:33;;;;;;;;;;;;;;;19.70;24.38;96134.84;5114516;28;1577;-47
2022/03/26 10:44:07;;;;;;;;;;;;;;;19.59;23.76;96129.91;5115652;28;1059;-47
2022/03/26 10:46:43;;;;;;;;;;;;;;;19.69;25.22;96125.03;5115962;28;948;-47
2022/03/26 10:49:09;;;;;;;;;;;;;;;20.11;23.54;96127.94;5115650;28;1981;-48
2022/03/26 10:51:36;;;;;;;;;;;;;;;20.13;24.70;96114.13;5115623;28;1173;-47
2022/03/26 10:54:10;;;;;;;;;;;;;;;20.25;24.21;96116.09;5114622;28;1593;-48
2022/03/26 10:56:37;;;;;;;;;;;;;;;20.17;24.11;96099.97;5115528;28;1016;-48
2022/03/26 10:59:03;;;;;;;;;;;;;;;19.92;24.83;96105.00;5115693;28;1019;-48
2022/03/26 11:01:30;;;;;;;;;;;;;;;19.98;24.53;96101.50;5115441;28;1043;-48
2022/03/26 11:03:59;;;;;;;;;;;;;;;20.24;25.08;96086.44;5115485;28;1044;-49
2022/03/26 11:06:28;;;;;;;;;;;;;;;19.97;23.84;96083.53;5115615;28;952;-50
2022/03/26 11:09:02;;;;;;;;;;;;;;;19.82;25.33;96080.91;5115105;28;1913;-49
2022/03/26 11:11:28;;;;;;;;;;;;;;;20.20;24.96;96077.84;5113351;27;1387;-49
2022/03/26 11:14:02;;;;;;;;;;;;;;;20.35;24.11;96069.56;5114608;28;1855;-49
2022/03/26 11:16:40;;;;;;;;;;;;;;;20.31;24.58;96068.31;5115463;28;1016;-49
2022/03/26 11:19:17;;;;;;;;;;;;;;;20.54;24.54;96067.19;5114010;28;1560;-48
2022/03/26 11:21:43;;;;;;;;;;;;;;;20.61;24.39;96058.06;5115130;28;1056;-49
2022/03/26 11:24:27;;;;;;;;;;;;;;;20.25;23.32;96060.97;5115291;28;984;-48
2022/03/26 11:26:59;;;;;;;;;;;;;;;20.07;25.06;96051.47;5115150;28;1096;-48
2022/03/26 11:29:57;;;;;;;;;;;;;;;20.21;24.45;96051.56;5113316;28;1906;-48
2022/03/26 11:32:29;;;;;;;;;;;;;;;20.39;24.87;96043.69;5080879;28;1296;-48
2022/03/26 11:34:59;;;;;;;;;;;;;;;20.30;25.31;96047.63;5115016;28;1131;-50
2022/03/26 11:37:25;;;;;;;;;;;;;;;19.87;24.90;96039.63;5115002;28;1026;-49
2022/03/26 11:39:52;;;;;;;;;;;;;;;19.80;25.25;96038.72;5114573;28;1061;-49
2022/03/26 11:42:24;;;;;;;;;;;;;;;19.78;24.43;96027.22;5114647;28;1048;-49
2022/03/26 11:50:42;;;;;;;;;;;;;;;19.57;24.71;96023.50;5114518;28;1231;-49
2022/03/26 11:53:09;;;;;;;;;;;;;;;19.56;25.37;96024.53;5094094;28;996;-49
2022/03/26 11:55:46;;;;;;;;;;;;;;;19.61;25.60;96018.50;5094351;28;1102;-50
2022/03/26 11:58:12;;;;;;;;;;;;;;;19.66;25.45;96016.88;5094214;28;1039;-49
2022/03/26 12:00:59;;;;;;;;;;;;;;;19.66;24.18;96019.59;5113399;28;1822;-49
2022/03/26 12:03:26;;;;;;;;;;;;;;;19.67;25.33;96013.16;5114676;28;1036;-49
2022/03/26 12:08:41;;;;;;;;;;;;;;;19.70;24.87;96001.06;5114317;28;1985;-50
2022/03/26 12:11:11;;;;;;;;;;;;;;;19.61;25.39;96007.66;5114143;28;1090;-49
2022/03/26 12:13:37;;;;;;;;;;;;;;;19.70;25.40;96006.47;5114377;28;948;-49
2022/03/26 12:16:05;;;;;;;;;;;;;;;19.86;24.96;95992.66;5113315;28;1075;-50
2022/03/26 12:18:36;;;;;;;;;;;;;;;19.82;24.71;95990.53;5112754;28;1467;-50
2022/03/26 12:21:06;;;;;;;;;;;;;;;19.97;25.09;95988.53;5114372;28;1046;-51
2022/03/26 12:23:34;;;;;;;;;;;;;;;19.97;24.89;95985.00;5112792;28;965;-50
2022/03/26 12:26:07;;;;;;;;;;;;;;;19.87;24.62;95975.31;5114219;28;1098;-50
2022/03/26 12:28:43;;;;;;;;;;;;;;;19.62;23.71;95966.78;5112495;28;1910;-49
2022/03/26 12:31:10;;;;;;;;;;;;;;;19.10;23.52;95973.44;5113877;28;1542;-52
2022/03/26 12:33:39;;;;;;;;;;;;;;;19.09;24.61;95969.06;5113951;28;991;-48
2022/03/26 12:36:05;;;;;;;;;;;;;;;19.29;24.06;95971.94;5114115;28;1032;-50
2022/03/26 12:38:32;;;;;;;;;;;;;;;19.27;24.06;95961.31;5112760;28;1490;-50
2022/03/26 12:40:59;;;;;;;;;;;;;;;19.48;24.89;95965.00;5113581;28;1555;-49
2022/03/26 12:43:26;;;;;;;;;;;;;;;19.56;24.15;95948.59;5113444;28;992;-50
2022/03/26 12:45:53;;;;;;;;;;;;;;;19.34;23.95;95946.97;5113973;28;972;-50
2022/03/26 12:48:22;;;;;;;;;;;;;;;19.47;23.73;95957.91;5113517;28;1919;-50
2022/03/26 12:50:49;;;;;;;;;;;;;;;19.36;24.20;95943.00;5113329;28;1024;-50
2022/03/26 12:53:16;;;;;;;;;;;;;;;19.51;24.22;95946.47;5113724;28;1112;-50
2022/03/26 12:55:52;;;;;;;;;;;;;;;19.59;23.81;95945.47;5113588;28;1024;-50
2022/03/26 13:01:04;;;;;;;;;;;;;;;19.84;22.75;95947.75;5113519;28;1280;-50
2022/03/26 13:03:31;;;;;;;;;;;;;;;19.81;23.03;95937.31;5113608;28;995;-51
2022/03/26 13:05:57;;;;;;;;;;;;;;;19.59;23.21;95922.94;5113682;28;1054;-50
2022/03/26 13:08:24;;;;;;;;;;;;;;;19.72;23.66;95931.19;5113002;28;1910;-55
2022/03/26 13:10:51;;;;;;;;;;;;;;;19.83;23.98;95935.22;5112956;28;1228;-51
2022/03/26 13:13:18;;;;;;;;;;;;;;;19.85;23.99;95919.59;5113210;28;1327;-50
2022/03/26 13:15:59;;;;;;;;;;;;;;;19.95;22.89;95922.75;5112995;28;1619;-51
2022/03/26 13:18:25;;;;;;;;;;;;;;;20.01;22.76;95919.22;5112905;28;1343;-50
2022/03/26 13:20:51;;;;;;;;;;;;;;;19.84;22.73;95934.16;5112500;28;1624;-50
2022/03/26 13:23:17;;;;;;;;;;;;;;;19.61;23.03;95920.84;5113036;28;1227;-50
2022/03/26 13:25:45;;;;;;;;;;;;;;;19.67;22.78;95920.91;5112793;28;1340;-49